East Winnfield, Louisiana
Current Conditions -  °F | °C
As of 8:15 PM on Saturday 22 Nov 2014 (Local Time) from KIER Reporting Station
Overcast Overcast  
Wind Chill: 65°   Ceiling: 1900
Heat Index: 65°   Visibility: 10mi
Dew Point: 60°   Wind: 10mph
Humidity: 84%   Direction: 120°ESE
Pressure: 29.89"   Gusts: NA
Location:  31.9379°N, 92.5858°W
Report Text: KIER 230215Z AUTO 12009KT 10SM BKN019 OVC070 18/16 A2989 RMK AO2 LTG DSNT SW AND W T01820155
Loading
Personal Weather Stations






























Interactive Weather Map New forecast layout! Learn more

10-Day Weather Forecast

Advertisements
Track Severe Weather on mobile